createdAt,value
2023-04-11T00:01:54.416Z,40.39
2023-04-11T00:04:22.970Z,40.80
2023-04-11T00:06:50.753Z,40.20
2023-04-11T00:09:18.391Z,40.20
2023-04-11T00:11:46.251Z,39.80
2023-04-11T00:14:17.567Z,40.27
2023-04-11T00:16:45.611Z,40.57
2023-04-11T00:19:13.283Z,40.21
2023-04-11T00:21:41.066Z,39.92
2023-04-11T00:24:08.861Z,40.78
2023-04-11T00:26:36.610Z,40.14
2023-04-11T00:29:07.484Z,39.91
2023-04-11T00:31:36.610Z,39.59
2023-04-11T00:34:16.454Z,38.71
2023-04-11T00:36:48.800Z,38.30
2023-04-11T00:39:29.330Z,38.97
2023-04-11T00:42:39.481Z,40.00
2023-04-11T00:44:59.535Z,39.85
2023-04-11T00:47:27.757Z,38.97
2023-04-11T00:50:07.787Z,39.08
2023-04-11T00:52:57.996Z,39.09
2023-04-11T00:55:27.183Z,39.57
2023-04-11T00:57:55.515Z,39.57
2023-04-11T01:00:24.019Z,39.30
2023-04-11T01:02:51.824Z,39.17
2023-04-11T01:05:20.075Z,39.78
2023-04-11T01:07:51.612Z,40.22
2023-04-11T01:10:19.485Z,39.64
2023-04-11T01:12:47.317Z,39.95
2023-04-11T01:15:15.544Z,39.80
2023-04-11T01:17:43.480Z,40.18
2023-04-11T01:20:14.665Z,39.13
2023-04-11T01:22:43.259Z,39.47
2023-04-11T01:25:12.412Z,39.04
2023-04-11T01:27:42.408Z,39.21
2023-04-11T01:30:12.380Z,38.50
2023-04-11T01:32:40.509Z,39.86
2023-04-11T01:35:11.143Z,39.40
2023-04-11T01:37:39.279Z,39.25
2023-04-11T01:40:07.994Z,38.72
2023-04-11T01:42:37.789Z,39.02
2023-04-11T01:45:07.574Z,39.35
2023-04-11T01:47:36.133Z,39.57
2023-04-11T01:50:04.372Z,39.24
2023-04-11T01:52:32.092Z,38.40
2023-04-11T01:54:59.810Z,37.74
2023-04-11T01:57:27.491Z,37.62
2023-04-11T01:59:55.264Z,36.76
2023-04-11T02:02:23.218Z,36.46
2023-04-11T02:04:51.105Z,36.67
2023-04-11T02:07:20.912Z,36.54
2023-04-11T02:09:48.565Z,36.46
2023-04-11T02:12:16.424Z,36.59
2023-04-11T02:14:45.847Z,37.06
2023-04-11T02:17:14.211Z,35.83
2023-04-11T02:19:42.049Z,35.06
2023-04-11T02:22:09.697Z,34.67
2023-04-11T02:24:38.155Z,34.75
2023-04-11T02:27:06.139Z,35.19
2023-04-11T02:29:34.216Z,34.10
2023-04-11T02:32:02.126Z,34.28
2023-04-11T02:34:29.971Z,34.35
2023-04-11T02:37:00.216Z,34.90
2023-04-11T02:39:28.476Z,39.22
2023-04-11T02:41:57.377Z,40.39
2023-04-11T02:44:26.343Z,40.42
2023-04-11T02:46:56.034Z,39.04
2023-04-11T02:49:24.019Z,40.49
2023-04-11T02:51:51.639Z,41.53
2023-04-11T02:54:19.274Z,45.03
2023-04-11T02:56:47.538Z,45.72
2023-04-11T02:59:15.388Z,46.35
2023-04-11T03:01:45.389Z,45.75
2023-04-11T03:04:13.414Z,46.15
2023-04-11T03:07:01.340Z,47.60
2023-04-11T03:09:29.574Z,50.09
2023-04-11T03:11:57.469Z,50.67
2023-04-11T03:14:25.277Z,52.95
2023-04-11T03:16:52.893Z,54.37
2023-04-11T03:19:21.055Z,56.32
2023-04-11T03:21:48.804Z,56.43
2023-04-11T03:24:17.804Z,56.27
2023-04-11T03:26:45.662Z,56.62
2023-04-11T03:29:16.568Z,57.22
2023-04-11T03:31:58.299Z,57.27
2023-04-11T03:34:26.794Z,57.28
2023-04-11T03:36:55.868Z,59.25
2023-04-11T03:39:24.411Z,58.79
2023-04-11T03:41:52.697Z,58.60
2023-04-11T03:44:20.387Z,57.59
2023-04-11T03:46:48.923Z,56.25
2023-04-11T03:49:17.125Z,57.55
2023-04-11T03:51:49.673Z,58.92
2023-04-11T03:54:17.872Z,58.88
2023-04-11T03:56:45.672Z,59.89
2023-04-11T03:59:19.931Z,59.11
2023-04-11T04:01:59.150Z,60.57
2023-04-11T04:04:27.720Z,60.43
2023-04-11T04:07:10.067Z,59.74
2023-04-11T04:09:42.059Z,59.33
2023-04-11T04:12:10.808Z,60.53
2023-04-11T04:14:52.436Z,59.45
2023-04-11T04:17:21.118Z,59.78
2023-04-11T04:19:48.760Z,59.31
2023-04-11T04:22:17.722Z,58.76
2023-04-11T04:24:51.787Z,59.85
2023-04-11T04:27:25.011Z,60.71
2023-04-11T04:30:03.059Z,60.39
2023-04-11T04:32:46.032Z,60.11
2023-04-11T04:35:16.486Z,61.08
2023-04-11T04:37:47.078Z,58.37
2023-04-11T04:40:41.940Z,59.79
2023-04-11T04:43:18.849Z,58.96
2023-04-11T04:45:55.618Z,58.90
2023-04-11T04:48:33.289Z,59.81
2023-04-11T04:51:01.528Z,60.40
2023-04-11T04:53:29.483Z,59.95
2023-04-11T04:56:00.179Z,60.40
2023-04-11T04:58:30.086Z,60.22
2023-04-11T05:01:02.582Z,58.11
2023-04-11T05:03:35.508Z,58.46
2023-04-11T05:06:06.481Z,56.42
2023-04-11T05:08:34.796Z,58.51
2023-04-11T05:11:04.834Z,59.44
2023-04-11T05:13:34.589Z,57.69
2023-04-11T05:16:04.327Z,59.08
2023-04-11T05:18:32.271Z,59.33
2023-04-11T05:21:01.660Z,58.06
2023-04-11T05:23:35.473Z,57.63
2023-04-11T05:26:04.228Z,59.02
2023-04-11T05:28:34.754Z,59.21
2023-04-11T05:31:07.174Z,58.90
2023-04-11T05:33:34.867Z,59.88
2023-04-11T05:36:02.538Z,59.56
2023-04-11T05:38:33.285Z,59.22
2023-04-11T05:41:01.091Z,59.21
2023-04-11T05:43:28.656Z,61.38
2023-04-11T05:45:57.543Z,61.73
2023-04-11T05:48:25.334Z,60.78
2023-04-11T05:50:53.257Z,61.10
2023-04-11T05:53:21.280Z,61.56
2023-04-11T05:55:48.981Z,61.85
2023-04-11T05:58:16.853Z,61.84
2023-04-11T06:00:46.008Z,61.23
2023-04-11T06:03:14.195Z,62.21
2023-04-11T06:05:41.920Z,62.24
2023-04-11T06:08:10.438Z,61.97
2023-04-11T06:10:38.143Z,61.34
2023-04-11T06:13:06.161Z,61.17
2023-04-11T06:15:36.930Z,59.46
2023-04-11T06:18:04.676Z,60.40
2023-04-11T06:20:32.330Z,59.25
2023-04-11T06:23:01.405Z,60.07
2023-04-11T06:25:29.156Z,60.51
2023-04-11T06:27:56.938Z,60.40
2023-04-11T06:30:24.668Z,59.35
2023-04-11T06:32:52.517Z,60.88
2023-04-11T06:35:24.720Z,62.18
2023-04-11T06:37:52.493Z,62.02
2023-04-11T06:40:20.492Z,62.10
2023-04-11T06:42:48.491Z,61.06
2023-04-11T06:45:16.367Z,62.54
2023-04-11T06:47:44.164Z,59.64
2023-04-11T06:50:12.081Z,58.71
2023-04-11T06:52:39.970Z,58.69
2023-04-11T06:55:08.355Z,59.66
2023-04-11T06:57:38.350Z,60.16
2023-04-11T07:00:07.940Z,62.06
2023-04-11T07:02:35.891Z,61.74
2023-04-11T07:05:03.973Z,63.00
2023-04-11T07:07:32.080Z,63.32
2023-04-11T07:09:59.702Z,64.16
2023-04-11T07:12:27.468Z,65.51
2023-04-11T07:14:55.241Z,67.10
2023-04-11T07:17:23.019Z,70.34
2023-04-11T07:19:50.866Z,65.93
2023-04-11T07:22:19.604Z,66.46
2023-04-11T07:24:57.540Z,64.98
2023-04-11T07:27:26.610Z,65.02
2023-04-11T07:29:54.243Z,64.18
2023-04-11T07:32:21.985Z,63.18
2023-04-11T07:34:49.640Z,64.74
2023-04-11T07:37:18.126Z,63.54
2023-04-11T07:39:45.773Z,61.60
2023-04-11T07:42:13.392Z,63.33
2023-04-11T07:44:41.080Z,63.86
2023-04-11T07:47:08.897Z,62.23
2023-04-11T07:49:36.767Z,62.93
2023-04-11T07:52:04.472Z,60.00
2023-04-11T07:54:33.313Z,59.57
2023-04-11T07:57:02.080Z,58.70
2023-04-11T07:59:29.718Z,57.13
2023-04-11T08:02:01.586Z,56.29
2023-04-11T08:04:36.866Z,54.98
2023-04-11T08:07:04.883Z,54.56
2023-04-11T08:09:35.489Z,54.87
2023-04-11T08:12:04.528Z,55.11
2023-04-11T08:14:32.460Z,53.17
2023-04-11T08:17:02.792Z,56.32
2023-04-11T08:19:33.361Z,54.08
2023-04-11T08:22:01.229Z,54.15
2023-04-11T08:24:29.016Z,56.74
2023-04-11T08:26:56.698Z,55.11
2023-04-11T08:29:24.496Z,55.11
2023-04-11T08:31:52.158Z,56.09
2023-04-11T08:34:27.197Z,55.65
2023-04-11T08:36:54.926Z,54.90
2023-04-11T08:39:26.390Z,53.49
2023-04-11T08:41:54.334Z,53.13
2023-04-11T08:44:22.462Z,53.32
2023-04-11T08:46:53.099Z,54.14
2023-04-11T08:49:26.560Z,55.16
2023-04-11T08:51:57.196Z,53.05
2023-04-11T08:54:25.106Z,53.57
2023-04-11T08:56:55.625Z,51.46
2023-04-11T08:59:23.459Z,49.21
2023-04-11T09:01:51.439Z,52.47
2023-04-11T09:04:19.451Z,51.96
2023-04-11T09:07:00.539Z,51.82
2023-04-11T09:09:31.042Z,52.10
2023-04-11T09:11:59.331Z,48.37
2023-04-11T09:14:27.382Z,47.05
2023-04-11T09:17:02.375Z,45.83
2023-04-11T09:19:32.666Z,44.88
2023-04-11T09:22:09.558Z,44.40
2023-04-11T09:25:06.947Z,46.27
2023-04-11T09:27:34.762Z,47.28
2023-04-11T09:30:03.913Z,49.28
2023-04-11T09:32:35.248Z,51.71
2023-04-11T09:35:10.419Z,51.24
2023-04-11T09:37:49.161Z,50.34
2023-04-11T09:40:20.305Z,50.01
2023-04-11T09:42:49.670Z,50.86
2023-04-11T09:45:24.377Z,51.69
2023-04-11T09:47:55.833Z,51.94
2023-04-11T09:50:28.036Z,52.98
2023-04-11T09:52:58.831Z,54.38
2023-04-11T09:55:27.309Z,54.88
2023-04-11T09:57:55.288Z,55.13
2023-04-11T10:00:29.234Z,54.95
2023-04-11T10:02:57.295Z,52.31
2023-04-11T10:05:29.723Z,51.68
2023-04-11T10:08:22.521Z,54.60
2023-04-11T10:10:53.052Z,55.38
2023-04-11T10:13:45.406Z,55.60
2023-04-11T10:16:24.076Z,54.40
2023-04-11T10:18:55.643Z,55.27
2023-04-11T10:21:30.321Z,53.02
2023-04-11T10:24:26.314Z,51.51
2023-04-11T10:27:01.003Z,49.48
2023-04-11T10:29:33.094Z,50.84
2023-04-11T10:32:16.049Z,51.01
2023-04-11T10:34:49.674Z,53.73
2023-04-11T10:37:19.198Z,54.08
2023-04-11T10:40:01.806Z,53.89
2023-04-11T10:42:33.698Z,54.26
2023-04-11T10:45:30.432Z,52.50
2023-04-11T10:48:03.878Z,50.89
2023-04-11T10:50:32.192Z,51.67
2023-04-11T10:53:05.022Z,53.50
2023-04-11T10:56:02.280Z,53.54
2023-04-11T10:58:39.623Z,53.86
2023-04-11T11:01:07.433Z,53.25
2023-04-11T11:03:35.904Z,53.50
2023-04-11T11:06:07.279Z,52.47
2023-04-11T11:08:41.763Z,51.64
2023-04-11T11:11:11.374Z,50.71
2023-04-11T11:13:44.805Z,50.34
2023-04-11T11:16:24.821Z,52.24
2023-04-11T11:18:54.770Z,51.21
2023-04-11T11:21:28.158Z,50.90
2023-04-11T11:24:02.380Z,51.08
2023-04-11T11:26:40.256Z,51.72
2023-04-11T11:29:10.024Z,50.45
2023-04-11T11:31:45.642Z,47.86
2023-04-11T11:34:23.430Z,48.15
2023-04-11T11:36:52.627Z,46.32
2023-04-11T11:39:21.957Z,47.58
2023-04-11T11:41:51.302Z,49.03
2023-04-11T11:44:33.855Z,48.73
2023-04-11T11:47:14.950Z,47.44
2023-04-11T11:49:51.800Z,47.45
2023-04-11T11:52:39.680Z,46.96
2023-04-11T11:55:19.534Z,46.08
2023-04-11T11:57:49.772Z,46.36
2023-04-11T12:00:29.558Z,45.39
2023-04-11T12:02:59.893Z,45.62
2023-04-11T12:05:30.959Z,45.96
2023-04-11T12:08:04.270Z,46.44
2023-04-11T12:10:49.813Z,56.13
2023-04-11T12:13:23.533Z,67.55
2023-04-11T12:15:54.828Z,67.88
2023-04-11T12:18:25.152Z,68.47
2023-04-11T12:20:53.746Z,68.37
2023-04-11T12:23:22.650Z,70.35
2023-04-11T12:25:50.552Z,69.30
2023-04-11T12:28:18.277Z,67.92
2023-04-11T12:30:45.988Z,68.21
2023-04-11T12:33:13.588Z,65.67
2023-04-11T12:35:41.317Z,65.18
2023-04-11T12:38:09.821Z,64.68
2023-04-11T12:40:38.600Z,66.13
2023-04-11T12:43:06.233Z,64.59
2023-04-11T12:45:33.974Z,61.92
2023-04-11T12:48:01.775Z,62.70
2023-04-11T12:50:29.614Z,60.69
2023-04-11T12:52:57.222Z,60.48
2023-04-11T12:55:25.066Z,58.23
2023-04-11T12:57:52.682Z,58.68
2023-04-11T13:00:20.705Z,56.86
2023-04-11T13:02:48.693Z,54.96
2023-04-11T13:05:17.357Z,52.57
2023-04-11T13:07:46.143Z,51.48
2023-04-11T13:10:16.096Z,52.17
2023-04-11T13:12:45.422Z,49.81
2023-04-11T13:15:17.563Z,48.82
2023-04-11T13:17:45.535Z,50.17
2023-04-11T13:20:13.542Z,50.02
2023-04-11T13:22:43.479Z,50.33
2023-04-11T13:25:12.495Z,55.20
2023-04-11T13:27:42.048Z,61.48
2023-04-11T13:30:10.587Z,63.35
2023-04-11T13:32:38.591Z,62.28
2023-04-11T13:35:07.144Z,64.23
2023-04-11T13:37:34.801Z,60.30
2023-04-11T13:40:06.530Z,57.15
2023-04-11T13:42:34.610Z,54.75
2023-04-11T13:45:02.389Z,58.77
2023-04-11T13:47:30.382Z,54.62
2023-04-11T13:49:57.963Z,52.29
2023-04-11T13:52:25.603Z,61.11
2023-04-11T13:54:53.259Z,60.81
2023-04-11T13:57:21.182Z,58.79
2023-04-11T13:59:48.930Z,58.23
2023-04-11T14:02:16.779Z,53.47
2023-04-11T14:04:44.409Z,52.98
2023-04-11T14:07:12.479Z,52.58
2023-04-11T14:09:40.529Z,54.47
2023-04-11T14:12:08.236Z,55.53
2023-04-11T14:14:36.088Z,56.28
2023-04-11T14:17:03.924Z,55.65
2023-04-11T14:19:31.559Z,54.58
2023-04-11T14:22:02.414Z,54.53
2023-04-11T14:24:30.895Z,52.34
2023-04-11T14:26:58.875Z,51.44
2023-04-11T14:29:27.188Z,50.30
2023-04-11T14:31:56.620Z,49.22
2023-04-11T14:34:24.288Z,45.59
2023-04-11T14:36:52.361Z,42.84
2023-04-11T14:39:21.283Z,39.79
2023-04-11T14:41:49.000Z,41.53
2023-04-11T14:44:16.884Z,41.86
2023-04-11T14:46:44.629Z,42.65
2023-04-11T14:49:12.504Z,38.94
2023-04-11T14:51:40.154Z,39.32
2023-04-11T14:54:07.815Z,40.14
2023-04-11T14:56:36.469Z,39.60
2023-04-11T14:59:04.241Z,40.28
2023-04-11T15:01:31.993Z,41.17
2023-04-11T15:04:00.261Z,42.22
2023-04-11T15:06:28.164Z,43.15
2023-04-11T15:08:55.987Z,44.56
2023-04-11T15:11:23.571Z,48.97
2023-04-11T15:13:52.863Z,53.83
2023-04-11T15:16:23.361Z,61.80
2023-04-11T15:18:51.082Z,61.61
2023-04-11T15:21:21.360Z,61.88
2023-04-11T15:23:49.085Z,60.37
2023-04-11T15:26:16.780Z,58.34
2023-04-11T15:28:45.815Z,56.11
2023-04-11T15:31:14.927Z,52.75
2023-04-11T15:33:46.337Z,51.56
2023-04-11T15:36:14.090Z,50.53
2023-04-11T15:38:41.639Z,47.46
2023-04-11T15:41:09.313Z,45.42
2023-04-11T15:43:37.532Z,47.73
2023-04-11T15:46:06.660Z,45.78
2023-04-11T15:48:34.415Z,45.88
2023-04-11T15:51:09.926Z,42.73
2023-04-11T15:53:37.666Z,44.45
2023-04-11T15:56:07.289Z,43.00
2023-04-11T15:58:35.275Z,42.64
2023-04-11T16:01:03.011Z,44.55
2023-04-11T16:03:33.986Z,43.35
2023-04-11T16:06:02.785Z,41.76
2023-04-11T16:08:30.467Z,39.73
2023-04-11T16:10:58.202Z,38.04
2023-04-11T16:13:25.832Z,42.55
2023-04-11T16:15:53.608Z,40.88
2023-04-11T16:18:21.271Z,44.24
2023-04-11T16:20:48.903Z,44.57
2023-04-11T16:23:16.605Z,44.33
2023-04-11T16:25:44.981Z,43.24
2023-04-11T16:28:15.001Z,44.31
2023-04-11T16:30:43.450Z,45.15
2023-04-11T16:33:11.065Z,45.88
2023-04-11T16:35:38.806Z,43.32
2023-04-11T16:38:06.567Z,44.21
2023-04-11T16:40:34.970Z,43.55
2023-04-11T16:43:02.684Z,45.50
2023-04-11T16:45:30.449Z,47.80
2023-04-11T16:47:58.158Z,48.11
2023-04-11T16:50:26.133Z,47.23
2023-04-11T16:52:54.055Z,47.30
2023-04-11T16:55:22.635Z,48.73
2023-04-11T16:57:50.460Z,49.88
2023-04-11T17:00:20.343Z,50.66
2023-04-11T17:02:48.070Z,50.88
2023-04-11T17:05:18.835Z,52.78
2023-04-11T17:07:46.908Z,58.10
2023-04-11T17:10:14.638Z,60.46
2023-04-11T17:12:42.318Z,60.23
2023-04-11T17:15:11.042Z,60.39
2023-04-11T17:17:38.684Z,59.60
2023-04-11T17:20:09.698Z,59.92
2023-04-11T17:22:41.192Z,59.34
2023-04-11T17:25:10.046Z,58.88
2023-04-11T17:27:37.860Z,58.39
2023-04-11T17:30:08.118Z,58.52
2023-04-11T17:32:39.288Z,57.73
2023-04-11T17:35:07.384Z,57.94
2023-04-11T17:37:35.969Z,58.63
2023-04-11T17:40:10.606Z,58.60
2023-04-11T17:42:38.587Z,58.57
2023-04-11T17:45:17.792Z,58.94
2023-04-11T17:47:47.628Z,58.52
2023-04-11T17:50:16.903Z,57.81
2023-04-11T17:52:47.175Z,57.84
2023-04-11T17:55:18.956Z,58.27
2023-04-11T17:57:50.332Z,57.74
2023-04-11T18:00:26.037Z,58.43
2023-04-11T18:03:00.039Z,58.21
2023-04-11T18:05:33.525Z,58.05
2023-04-11T18:08:03.032Z,58.22
2023-04-11T18:10:31.323Z,58.93
2023-04-11T18:12:59.226Z,57.04
2023-04-11T18:15:28.002Z,57.58
2023-04-11T18:17:56.020Z,58.16
2023-04-11T18:20:23.935Z,58.88
2023-04-11T18:22:55.893Z,59.42
2023-04-11T18:25:23.859Z,59.16
2023-04-11T18:27:51.475Z,59.45
2023-04-11T18:30:19.119Z,58.40
2023-04-11T18:32:49.667Z,58.02
2023-04-11T18:35:18.793Z,57.22
2023-04-11T18:37:51.976Z,55.82
2023-04-11T18:40:21.131Z,53.42
2023-04-11T18:42:52.004Z,53.76
2023-04-11T18:45:21.893Z,56.18
2023-04-11T18:47:50.139Z,57.46
2023-04-11T18:50:22.564Z,56.95
2023-04-11T18:53:02.934Z,56.88
2023-04-11T18:55:34.221Z,55.82
2023-04-11T18:58:16.590Z,55.38
2023-04-11T19:00:48.789Z,55.96
2023-04-11T19:03:16.668Z,55.04
2023-04-11T19:05:45.362Z,55.25
2023-04-11T19:08:13.380Z,56.45
2023-04-11T19:10:41.111Z,57.05
2023-04-11T19:13:08.845Z,56.07
2023-04-11T19:15:36.919Z,55.53
2023-04-11T19:18:06.427Z,56.85
2023-04-11T19:20:34.175Z,56.71
2023-04-11T19:23:02.003Z,56.42
2023-04-11T19:25:29.858Z,56.40
2023-04-11T19:27:57.547Z,55.39
2023-04-11T19:30:25.267Z,55.28
2023-04-11T19:32:52.871Z,54.18
2023-04-11T19:35:24.185Z,52.59
2023-04-11T19:37:52.212Z,52.66
2023-04-11T19:40:23.290Z,52.79
2023-04-11T19:42:51.694Z,52.10
2023-04-11T19:45:19.683Z,53.27
2023-04-11T19:47:47.933Z,53.89
2023-04-11T19:50:15.722Z,53.88
2023-04-11T19:52:43.846Z,54.52
2023-04-11T19:55:12.370Z,52.73
2023-04-11T19:57:41.142Z,52.41
2023-04-11T20:00:14.292Z,52.68
2023-04-11T20:02:45.116Z,52.10
2023-04-11T20:05:18.577Z,50.15
2023-04-11T20:07:47.155Z,49.30
2023-04-11T20:10:16.126Z,49.07
2023-04-11T20:12:43.842Z,49.19
2023-04-11T20:15:11.891Z,48.53
2023-04-11T20:17:39.671Z,50.49
2023-04-11T20:20:08.851Z,46.97
2023-04-11T20:22:38.332Z,46.00
2023-04-11T20:25:07.840Z,45.84
2023-04-11T20:27:35.610Z,47.14
2023-04-11T20:30:09.343Z,47.40
2023-04-11T20:32:37.655Z,47.11
2023-04-11T20:35:05.968Z,46.22
2023-04-11T20:37:35.217Z,45.93
2023-04-11T20:40:06.834Z,45.63
2023-04-11T20:42:35.280Z,46.13
2023-04-11T20:45:28.014Z,46.93
2023-04-11T20:47:57.674Z,46.96
2023-04-11T20:50:25.748Z,47.47
2023-04-11T20:52:53.361Z,47.30
2023-04-11T20:55:21.189Z,46.09
2023-04-11T20:57:48.911Z,46.80
2023-04-11T21:00:18.392Z,46.53
2023-04-11T21:02:50.715Z,46.06
2023-04-11T21:05:22.110Z,46.36
2023-04-11T21:07:50.037Z,46.71
2023-04-11T21:10:20.721Z,46.43
2023-04-11T21:12:51.568Z,46.34
2023-04-11T21:15:21.186Z,45.75
2023-04-11T21:17:50.115Z,45.05
2023-04-11T21:20:18.361Z,45.06
2023-04-11T21:22:54.822Z,45.49
2023-04-11T21:25:24.013Z,45.89
2023-04-11T21:27:51.887Z,45.93
2023-04-11T21:30:19.552Z,45.92
2023-04-11T21:32:47.418Z,45.88
2023-04-11T21:35:15.215Z,45.91
2023-04-11T21:37:42.894Z,45.99
2023-04-11T21:40:12.602Z,45.92
2023-04-11T21:42:40.853Z,45.62
2023-04-11T21:45:09.140Z,46.10
2023-04-11T21:47:36.923Z,46.47
2023-04-11T21:50:05.019Z,47.30
2023-04-11T21:52:32.638Z,47.16
2023-04-11T21:55:00.402Z,47.39
2023-04-11T21:57:28.009Z,47.02
2023-04-11T21:59:55.695Z,46.71
2023-04-11T22:02:23.630Z,47.03
2023-04-11T22:05:05.863Z,46.81
2023-04-11T22:07:46.231Z,47.28
2023-04-11T22:10:14.887Z,46.74
2023-04-11T22:12:45.561Z,46.98
2023-04-11T22:15:14.084Z,46.85
2023-04-11T22:17:42.569Z,47.07
2023-04-11T22:20:11.269Z,47.39
2023-04-11T22:22:38.932Z,47.66
2023-04-11T22:25:08.325Z,47.37
2023-04-11T22:27:36.017Z,47.42
2023-04-11T22:30:05.111Z,47.70
2023-04-11T22:32:33.622Z,47.91
2023-04-11T22:35:01.437Z,48.15
2023-04-11T22:37:29.096Z,47.83
2023-04-11T22:39:56.687Z,47.83
2023-04-11T22:42:24.746Z,48.26
2023-04-11T22:44:52.440Z,48.51
2023-04-11T22:47:21.665Z,48.28
2023-04-11T22:49:50.592Z,47.99
2023-04-11T22:52:24.111Z,48.29
2023-04-11T22:54:52.136Z,47.79
2023-04-11T22:57:20.421Z,47.53
2023-04-11T22:59:50.682Z,47.57
2023-04-11T23:02:47.070Z,47.94
2023-04-11T23:05:14.815Z,47.88
2023-04-11T23:07:42.537Z,47.77
2023-04-11T23:10:13.703Z,47.41
2023-04-11T23:12:42.304Z,47.40
2023-04-11T23:15:11.217Z,48.10
2023-04-11T23:17:40.002Z,47.62
2023-04-11T23:20:11.034Z,47.76
2023-04-11T23:22:42.148Z,47.93
2023-04-11T23:25:11.656Z,47.50
2023-04-11T23:27:39.896Z,47.45
2023-04-11T23:30:11.497Z,47.56
2023-04-11T23:32:39.822Z,47.32
2023-04-11T23:35:08.621Z,47.59
2023-04-11T23:37:37.346Z,47.55
2023-04-11T23:40:09.946Z,48.20
2023-04-11T23:42:38.696Z,47.96
2023-04-11T23:45:08.306Z,47.78
2023-04-11T23:47:36.065Z,48.56
2023-04-11T23:50:04.510Z,48.55
2023-04-11T23:52:32.175Z,48.70
2023-04-11T23:54:59.767Z,48.76
2023-04-11T23:57:27.521Z,48.45
2023-04-11T23:59:55.091Z,49.08
